createdAt,value
2022-08-20T00:03:02.845Z,100.00
2022-08-20T00:08:07.909Z,100.00
2022-08-20T00:13:14.002Z,95.86
2022-08-20T00:18:21.893Z,98.19
2022-08-20T00:23:26.248Z,100.00
2022-08-20T00:28:28.728Z,100.00
2022-08-20T00:33:34.961Z,100.00
2022-08-20T00:38:39.952Z,100.00
2022-08-20T00:43:45.042Z,100.00
2022-08-20T00:48:50.586Z,100.00
2022-08-20T00:53:55.977Z,100.00
2022-08-20T00:58:58.684Z,100.00
2022-08-20T01:04:01.266Z,100.00
2022-08-20T01:09:06.143Z,100.00
2022-08-20T01:14:36.081Z,100.00
2022-08-20T01:19:42.744Z,100.00
2022-08-20T01:24:47.554Z,100.00
2022-08-20T01:29:52.634Z,99.99
2022-08-20T01:34:55.216Z,99.21
2022-08-20T01:39:59.287Z,98.35
2022-08-20T01:45:04.355Z,99.58
2022-08-20T01:50:13.393Z,100.00
2022-08-20T01:55:16.032Z,98.53
2022-08-20T02:00:21.926Z,100.00
2022-08-20T02:05:24.953Z,100.00
2022-08-20T02:10:33.292Z,100.00
2022-08-20T02:15:39.772Z,100.00
2022-08-20T02:20:46.555Z,100.00
2022-08-20T02:25:49.290Z,100.00
2022-08-20T02:30:55.486Z,100.00
2022-08-20T02:35:58.817Z,100.00
2022-08-20T02:41:02.058Z,100.00
2022-08-20T02:46:06.942Z,100.00
2022-08-20T02:51:10.110Z,100.00
2022-08-20T02:56:13.229Z,100.00
2022-08-20T03:01:18.917Z,100.00
2022-08-20T03:06:21.994Z,100.00
2022-08-20T03:11:24.589Z,100.00
2022-08-20T03:16:28.547Z,100.00
2022-08-20T03:21:30.922Z,98.99
2022-08-20T03:26:33.509Z,100.00
2022-08-20T03:31:37.588Z,100.00
2022-08-20T03:36:39.983Z,100.00
2022-08-20T03:41:42.498Z,100.00
2022-08-20T03:46:46.341Z,98.59
2022-08-20T03:51:57.781Z,97.84
2022-08-20T03:57:02.677Z,100.00
2022-08-20T04:02:07.763Z,100.00
2022-08-20T04:07:11.372Z,100.00
2022-08-20T04:12:14.902Z,100.00
2022-08-20T04:17:20.649Z,100.00
2022-08-20T04:22:25.111Z,100.00
2022-08-20T04:27:27.858Z,99.68
2022-08-20T04:32:31.870Z,100.00
2022-08-20T04:37:34.677Z,100.00
2022-08-20T04:42:38.048Z,100.00
2022-08-20T04:47:43.114Z,100.00
2022-08-20T04:52:46.705Z,100.00
2022-08-20T04:57:49.456Z,100.00
2022-08-20T05:02:53.229Z,100.00
2022-08-20T05:07:56.938Z,100.00
2022-08-20T05:12:59.500Z,100.00
2022-08-20T05:18:05.698Z,100.00
2022-08-20T05:23:10.219Z,100.00
2022-08-20T05:28:17.694Z,99.49
2022-08-20T05:33:23.498Z,100.00
2022-08-20T05:38:31.078Z,97.84
2022-08-20T05:43:34.027Z,100.00
2022-08-20T05:48:37.834Z,99.40
2022-08-20T05:53:41.602Z,98.33
2022-08-20T05:58:44.055Z,99.75
2022-08-20T06:04:06.008Z,100.00
2022-08-20T06:09:08.849Z,100.00
2022-08-20T06:14:11.382Z,99.59
2022-08-20T06:19:15.450Z,99.53
2022-08-20T06:24:27.623Z,96.84
2022-08-20T06:29:33.247Z,96.84
2022-08-20T06:34:37.219Z,96.89
2022-08-20T06:39:39.669Z,97.35
2022-08-20T06:44:42.155Z,97.11
2022-08-20T06:49:47.461Z,99.20
2022-08-20T06:54:50.081Z,99.29
2022-08-20T06:59:55.642Z,100.00
2022-08-20T07:04:59.605Z,99.31
2022-08-20T07:10:02.098Z,97.96
2022-08-20T07:15:05.033Z,95.73
2022-08-20T07:20:13.183Z,95.35
2022-08-20T07:25:19.400Z,97.45
2022-08-20T07:30:56.895Z,100.00
2022-08-20T07:36:04.504Z,96.48
2022-08-20T07:41:49.048Z,93.84
2022-08-20T07:47:30.782Z,92.84
2022-08-20T07:52:57.186Z,99.72
2022-08-20T07:58:19.141Z,93.93
2022-08-20T08:03:39.449Z,99.13
2022-08-20T08:09:11.947Z,98.93
2022-08-20T08:14:14.922Z,95.29
2022-08-20T08:19:19.713Z,94.07
2022-08-20T08:24:28.171Z,91.45
2022-08-20T08:29:31.074Z,91.20
2022-08-20T08:34:35.998Z,89.16
2022-08-20T08:39:40.052Z,87.82
2022-08-20T08:44:42.990Z,88.48
2022-08-20T08:49:47.453Z,90.80
2022-08-20T08:54:55.406Z,90.79
2022-08-20T09:00:04.848Z,92.86
2022-08-20T09:05:15.654Z,91.84
2022-08-20T09:10:23.279Z,90.43
2022-08-20T09:15:26.002Z,89.14
2022-08-20T09:20:28.838Z,88.11
2022-08-20T09:25:32.835Z,86.10
2022-08-20T09:30:35.350Z,86.97
2022-08-20T09:35:40.210Z,86.05
2022-08-20T09:40:44.505Z,83.40
2022-08-20T09:45:47.017Z,84.14
2022-08-20T09:50:50.862Z,80.54
2022-08-20T09:55:56.701Z,81.34
2022-08-20T10:01:00.326Z,82.68
2022-08-20T10:06:03.073Z,84.80
2022-08-20T10:11:07.125Z,80.93
2022-08-20T10:16:09.714Z,79.26
2022-08-20T10:21:13.251Z,81.30
2022-08-20T10:26:17.412Z,83.46
2022-08-20T10:31:19.937Z,83.84
2022-08-20T10:36:22.392Z,83.19
2022-08-20T10:41:26.230Z,74.31
2022-08-20T10:46:28.869Z,72.10
2022-08-20T10:51:32.602Z,71.17
2022-08-20T10:56:36.982Z,72.88
2022-08-20T11:01:39.691Z,73.52
2022-08-20T11:06:42.425Z,71.01
2022-08-20T11:11:46.216Z,72.64
2022-08-20T11:16:48.748Z,73.23
2022-08-20T11:21:51.249Z,74.06
2022-08-20T11:26:55.276Z,71.12
2022-08-20T11:31:57.772Z,71.77
2022-08-20T11:37:00.478Z,69.10
2022-08-20T11:42:04.594Z,65.72
2022-08-20T11:47:08.792Z,67.45
2022-08-20T11:52:11.307Z,67.71
2022-08-20T11:57:21.320Z,72.26
2022-08-20T12:02:23.954Z,67.82
2022-08-20T12:07:28.413Z,66.66
2022-08-20T12:12:32.331Z,69.18
2022-08-20T12:17:35.623Z,68.36
2022-08-20T12:22:38.254Z,69.04
2022-08-20T12:27:42.594Z,67.81
2022-08-20T12:32:45.669Z,69.28
2022-08-20T12:37:48.529Z,67.11
2022-08-20T12:42:55.593Z,66.74
2022-08-20T12:48:05.964Z,65.72
2022-08-20T12:53:09.307Z,68.11
2022-08-20T12:58:13.674Z,69.03
2022-08-20T13:03:16.473Z,67.82
2022-08-20T13:08:19.449Z,68.05
2022-08-20T13:13:23.665Z,65.60
2022-08-20T13:18:26.151Z,66.21
2022-08-20T13:23:28.717Z,65.48
2022-08-20T13:28:32.914Z,66.49
2022-08-20T13:33:35.443Z,65.88
2022-08-20T13:38:37.938Z,67.12
2022-08-20T13:43:41.762Z,65.68
2022-08-20T13:48:44.558Z,68.10
2022-08-20T13:53:47.054Z,66.97
2022-08-20T13:58:51.235Z,68.23
2022-08-20T14:03:55.651Z,65.47
2022-08-20T14:08:58.766Z,67.84
2022-08-20T14:14:02.845Z,65.23
2022-08-20T14:19:05.536Z,67.54
2022-08-20T14:24:08.563Z,70.02
2022-08-20T14:29:12.385Z,70.70
2022-08-20T14:34:15.142Z,71.71
2022-08-20T14:39:20.412Z,70.84
2022-08-20T14:44:24.514Z,70.43
2022-08-20T14:49:27.036Z,70.60
2022-08-20T14:54:29.535Z,71.56
2022-08-20T14:59:34.010Z,74.08
2022-08-20T15:04:37.623Z,77.45
2022-08-20T15:09:40.172Z,75.64
2022-08-20T15:14:44.036Z,71.97
2022-08-20T15:19:50.995Z,70.04
2022-08-20T15:24:55.611Z,71.03
2022-08-20T15:30:01.826Z,69.36
2022-08-20T15:35:05.859Z,68.77
2022-08-20T15:40:10.251Z,68.13
2022-08-20T15:45:22.053Z,66.15
2022-08-20T15:50:42.011Z,65.93
2022-08-20T15:55:54.765Z,65.05
2022-08-20T16:01:23.747Z,65.51
2022-08-20T16:06:31.450Z,65.76
2022-08-20T16:11:45.591Z,65.21
2022-08-20T16:16:56.720Z,64.58
2022-08-20T16:22:06.776Z,66.46
2022-08-20T16:27:15.321Z,66.64
2022-08-20T16:32:33.027Z,67.75
2022-08-20T16:37:42.303Z,67.21
2022-08-20T16:42:48.034Z,75.74
2022-08-20T16:47:53.620Z,79.10
2022-08-20T16:52:56.384Z,80.67
2022-08-20T16:57:59.469Z,80.12
2022-08-20T17:03:06.464Z,81.15
2022-08-20T17:08:09.541Z,82.26
2022-08-20T17:13:23.851Z,80.86
2022-08-20T17:18:35.163Z,81.98
2022-08-20T17:23:55.232Z,85.02
2022-08-20T17:29:01.604Z,85.43
2022-08-20T17:34:06.029Z,85.33
2022-08-20T17:39:19.100Z,85.83
2022-08-20T17:44:24.278Z,82.50
2022-08-20T17:49:35.260Z,82.26
2022-08-20T17:54:42.167Z,82.00
2022-08-20T18:00:01.940Z,80.72
2022-08-20T18:05:20.431Z,81.40
2022-08-20T18:10:27.081Z,83.79
2022-08-20T18:15:32.744Z,80.91
2022-08-20T18:21:13.318Z,79.98
2022-08-20T18:26:20.693Z,82.36
2022-08-20T18:31:30.031Z,82.99
2022-08-20T18:36:34.414Z,87.00
2022-08-20T18:41:39.818Z,88.51
2022-08-20T18:46:54.048Z,86.76
2022-08-20T18:51:59.612Z,86.20
2022-08-20T18:57:07.349Z,85.99
2022-08-20T19:02:23.593Z,87.11
2022-08-20T19:07:47.973Z,86.69
2022-08-20T19:13:16.293Z,90.44
2022-08-20T19:18:25.648Z,87.54
2022-08-20T19:23:34.138Z,89.17
2022-08-20T19:28:44.578Z,90.33
2022-08-20T19:33:47.740Z,88.40
2022-08-20T19:38:57.712Z,87.83
2022-08-20T19:44:01.812Z,90.13
2022-08-20T19:49:19.207Z,95.40
2022-08-20T19:54:25.426Z,97.68
2022-08-20T19:59:28.356Z,93.36
2022-08-20T20:04:39.989Z,90.21
2022-08-20T20:09:46.206Z,90.40
2022-08-20T20:14:52.187Z,90.72
2022-08-20T20:19:59.199Z,99.74
2022-08-20T20:25:07.752Z,100.00
2022-08-20T20:30:13.781Z,100.00
2022-08-20T20:35:27.174Z,100.00
2022-08-20T20:40:36.123Z,99.12
2022-08-20T20:45:44.681Z,94.81
2022-08-20T20:50:48.466Z,98.84
2022-08-20T20:55:57.345Z,100.00
2022-08-20T21:00:59.880Z,100.00
2022-08-20T21:06:04.054Z,99.65
2022-08-20T21:11:07.984Z,97.63
2022-08-20T21:16:13.229Z,94.80
2022-08-20T21:21:16.036Z,97.24
2022-08-20T21:26:19.989Z,100.00
2022-08-20T21:31:22.658Z,97.22
2022-08-20T21:36:25.140Z,95.11
2022-08-20T21:41:29.960Z,100.00
2022-08-20T21:46:32.809Z,100.00
2022-08-20T21:51:36.048Z,96.74
2022-08-20T21:56:40.219Z,100.00
2022-08-20T22:01:43.266Z,99.95
2022-08-20T22:06:47.209Z,100.00
2022-08-20T22:11:54.574Z,100.00
2022-08-20T22:16:58.370Z,100.00
2022-08-20T22:22:01.288Z,100.00
2022-08-20T22:27:06.118Z,100.00
2022-08-20T22:32:08.698Z,99.89
2022-08-20T22:37:14.071Z,97.37
2022-08-20T22:42:18.297Z,98.67
2022-08-20T22:47:25.255Z,95.24
2022-08-20T22:52:27.966Z,95.46
2022-08-20T22:57:31.910Z,96.95
2022-08-20T23:02:37.144Z,100.00
2022-08-20T23:07:39.661Z,100.00
2022-08-20T23:12:43.530Z,100.00
2022-08-20T23:17:46.667Z,100.00
2022-08-20T23:22:49.137Z,100.00
2022-08-20T23:27:55.335Z,100.00
2022-08-20T23:32:58.102Z,100.00
2022-08-20T23:38:04.561Z,100.00
2022-08-20T23:43:08.446Z,100.00
2022-08-20T23:48:10.966Z,100.00
2022-08-20T23:53:13.502Z,100.00
2022-08-20T23:58:17.445Z,100.00
